sensor_id;sensor_type;location;lat;lon;timestamp;P1;durP1;ratioP1;P2;durP2;ratioP2
59093;SDS011;44880;52.814;18.270;2023-10-08T00:00:02;13.10;;;3.20;;
59093;SDS011;44880;52.814;18.270;2023-10-08T00:03:09;11.40;;;2.90;;
59093;SDS011;44880;52.814;18.270;2023-10-08T00:05:43;12.00;;;3.20;;
59093;SDS011;44880;52.814;18.270;2023-10-08T00:08:15;13.20;;;3.40;;
59093;SDS011;44880;52.814;18.270;2023-10-08T00:10:49;10.90;;;3.60;;
59093;SDS011;44880;52.814;18.270;2023-10-08T00:13:24;9.90;;;3.50;;
59093;SDS011;44880;52.814;18.270;2023-10-08T00:16:04;15.20;;;3.90;;
59093;SDS011;44880;52.814;18.270;2023-10-08T00:18:40;16.30;;;3.90;;
59093;SDS011;44880;52.814;18.270;2023-10-08T00:21:19;11.40;;;3.80;;
59093;SDS011;44880;52.814;18.270;2023-10-08T00:23:58;14.20;;;3.80;;
59093;SDS011;44880;52.814;18.270;2023-10-08T00:26:34;16.70;;;4.80;;
59093;SDS011;44880;52.814;18.270;2023-10-08T00:29:09;12.80;;;4.00;;
59093;SDS011;44880;52.814;18.270;2023-10-08T00:31:50;12.80;;;4.30;;
59093;SDS011;44880;52.814;18.270;2023-10-08T00:34:26;11.90;;;4.10;;
59093;SDS011;44880;52.814;18.270;2023-10-08T00:36:59;10.10;;;3.80;;
59093;SDS011;44880;52.814;18.270;2023-10-08T00:39:37;9.80;;;3.90;;
59093;SDS011;44880;52.814;18.270;2023-10-08T00:42:09;12.20;;;4.30;;
59093;SDS011;44880;52.814;18.270;2023-10-08T00:44:41;11.60;;;3.80;;
59093;SDS011;44880;52.814;18.270;2023-10-08T00:47:19;12.30;;;4.00;;
59093;SDS011;44880;52.814;18.270;2023-10-08T00:49:55;10.70;;;3.40;;
59093;SDS011;44880;52.814;18.270;2023-10-08T00:52:36;15.60;;;4.20;;
59093;SDS011;44880;52.814;18.270;2023-10-08T00:55:13;12.20;;;4.00;;
59093;SDS011;44880;52.814;18.270;2023-10-08T00:57:57;13.30;;;4.10;;
59093;SDS011;44880;52.814;18.270;2023-10-08T01:00:37;12.90;;;3.80;;
59093;SDS011;44880;52.814;18.270;2023-10-08T01:03:11;15.20;;;3.80;;
59093;SDS011;44880;52.814;18.270;2023-10-08T01:05:45;11.20;;;3.50;;
59093;SDS011;44880;52.814;18.270;2023-10-08T01:08:18;10.00;;;3.00;;
59093;SDS011;44880;52.814;18.270;2023-10-08T01:11:20;13.50;;;3.40;;
59093;SDS011;44880;52.814;18.270;2023-10-08T01:14:07;10.50;;;2.70;;
59093;SDS011;44880;52.814;18.270;2023-10-08T01:16:39;8.50;;;2.90;;
59093;SDS011;44880;52.814;18.270;2023-10-08T01:19:19;15.40;;;3.70;;
59093;SDS011;44880;52.814;18.270;2023-10-08T01:21:53;12.50;;;3.50;;
59093;SDS011;44880;52.814;18.270;2023-10-08T01:24:27;14.10;;;3.30;;
59093;SDS011;44880;52.814;18.270;2023-10-08T01:27:05;11.40;;;3.40;;
59093;SDS011;44880;52.814;18.270;2023-10-08T01:29:40;12.80;;;3.30;;
59093;SDS011;44880;52.814;18.270;2023-10-08T01:32:13;12.20;;;3.10;;
59093;SDS011;44880;52.814;18.270;2023-10-08T01:34:49;12.40;;;3.00;;
59093;SDS011;44880;52.814;18.270;2023-10-08T01:37:22;12.10;;;2.60;;
59093;SDS011;44880;52.814;18.270;2023-10-08T01:39:53;9.70;;;2.60;;
59093;SDS011;44880;52.814;18.270;2023-10-08T01:42:29;13.20;;;3.60;;
59093;SDS011;44880;52.814;18.270;2023-10-08T01:45:08;11.30;;;2.90;;
59093;SDS011;44880;52.814;18.270;2023-10-08T01:47:46;11.50;;;3.20;;
59093;SDS011;44880;52.814;18.270;2023-10-08T01:50:20;11.70;;;3.30;;
59093;SDS011;44880;52.814;18.270;2023-10-08T01:52:53;10.60;;;3.20;;
59093;SDS011;44880;52.814;18.270;2023-10-08T01:57:58;11.90;;;3.10;;
59093;SDS011;44880;52.814;18.270;2023-10-08T02:00:31;10.60;;;3.20;;
59093;SDS011;44880;52.814;18.270;2023-10-08T02:03:03;11.90;;;2.90;;
59093;SDS011;44880;52.814;18.270;2023-10-08T02:05:38;11.10;;;3.10;;
59093;SDS011;44880;52.814;18.270;2023-10-08T02:08:10;11.20;;;3.30;;
59093;SDS011;44880;52.814;18.270;2023-10-08T02:10:45;11.10;;;2.70;;
59093;SDS011;44880;52.814;18.270;2023-10-08T02:13:17;10.10;;;3.00;;
59093;SDS011;44880;52.814;18.270;2023-10-08T02:15:49;10.40;;;2.40;;
59093;SDS011;44880;52.814;18.270;2023-10-08T02:18:21;11.30;;;2.40;;
59093;SDS011;44880;52.814;18.270;2023-10-08T02:20:59;12.00;;;2.50;;
59093;SDS011;44880;52.814;18.270;2023-10-08T02:23:31;8.40;;;2.00;;
59093;SDS011;44880;52.814;18.270;2023-10-08T02:26:03;8.70;;;1.90;;
59093;SDS011;44880;52.814;18.270;2023-10-08T02:31:07;7.00;;;1.90;;
59093;SDS011;44880;52.814;18.270;2023-10-08T02:36:09;7.70;;;2.00;;
59093;SDS011;44880;52.814;18.270;2023-10-08T02:38:42;8.70;;;2.10;;
59093;SDS011;44880;52.814;18.270;2023-10-08T02:43:47;8.80;;;2.00;;
59093;SDS011;44880;52.814;18.270;2023-10-08T02:46:19;9.30;;;1.80;;
59093;SDS011;44880;52.814;18.270;2023-10-08T02:48:55;9.20;;;1.90;;
59093;SDS011;44880;52.814;18.270;2023-10-08T02:51:27;7.10;;;1.80;;
59093;SDS011;44880;52.814;18.270;2023-10-08T02:53:59;7.60;;;1.70;;
59093;SDS011;44880;52.814;18.270;2023-10-08T02:56:35;5.90;;;1.50;;
59093;SDS011;44880;52.814;18.270;2023-10-08T02:59:07;6.30;;;1.40;;
59093;SDS011;44880;52.814;18.270;2023-10-08T03:01:40;6.70;;;1.50;;
59093;SDS011;44880;52.814;18.270;2023-10-08T03:06:46;6.40;;;1.20;;
59093;SDS011;44880;52.814;18.270;2023-10-08T03:09:19;5.60;;;1.30;;
59093;SDS011;44880;52.814;18.270;2023-10-08T03:11:54;19.20;;;2.00;;
59093;SDS011;44880;52.814;18.270;2023-10-08T03:14:27;5.60;;;1.40;;
59093;SDS011;44880;52.814;18.270;2023-10-08T03:17:10;9.10;;;1.50;;
59093;SDS011;44880;52.814;18.270;2023-10-08T03:19:48;7.50;;;1.70;;
59093;SDS011;44880;52.814;18.270;2023-10-08T03:22:20;6.80;;;1.50;;
59093;SDS011;44880;52.814;18.270;2023-10-08T03:25:00;6.30;;;1.50;;
59093;SDS011;44880;52.814;18.270;2023-10-08T03:27:44;6.30;;;1.20;;
59093;SDS011;44880;52.814;18.270;2023-10-08T03:30:16;4.40;;;0.90;;
59093;SDS011;44880;52.814;18.270;2023-10-08T03:32:50;3.50;;;0.90;;
59093;SDS011;44880;52.814;18.270;2023-10-08T03:35:28;5.10;;;0.90;;
59093;SDS011;44880;52.814;18.270;2023-10-08T03:38:05;5.60;;;1.30;;
59093;SDS011;44880;52.814;18.270;2023-10-08T03:40:49;8.40;;;1.60;;
59093;SDS011;44880;52.814;18.270;2023-10-08T03:43:25;8.80;;;2.30;;
59093;SDS011;44880;52.814;18.270;2023-10-08T03:46:10;8.40;;;1.80;;
59093;SDS011;44880;52.814;18.270;2023-10-08T03:48:44;6.80;;;1.80;;
59093;SDS011;44880;52.814;18.270;2023-10-08T03:51:16;6.60;;;1.40;;
59093;SDS011;44880;52.814;18.270;2023-10-08T03:53:49;6.50;;;1.60;;
59093;SDS011;44880;52.814;18.270;2023-10-08T03:56:27;4.90;;;1.20;;
59093;SDS011;44880;52.814;18.270;2023-10-08T03:59:02;5.00;;;1.20;;
59093;SDS011;44880;52.814;18.270;2023-10-08T04:01:41;6.20;;;1.10;;
59093;SDS011;44880;52.814;18.270;2023-10-08T04:04:13;3.90;;;1.10;;
59093;SDS011;44880;52.814;18.270;2023-10-08T04:06:45;4.00;;;1.00;;
59093;SDS011;44880;52.814;18.270;2023-10-08T04:09:20;4.70;;;1.00;;
59093;SDS011;44880;52.814;18.270;2023-10-08T04:11:53;4.40;;;1.00;;
59093;SDS011;44880;52.814;18.270;2023-10-08T04:14:32;3.90;;;0.90;;
59093;SDS011;44880;52.814;18.270;2023-10-08T04:17:03;3.50;;;0.90;;
59093;SDS011;44880;52.814;18.270;2023-10-08T04:19:37;4.10;;;0.90;;
59093;SDS011;44880;52.814;18.270;2023-10-08T04:22:08;3.50;;;0.80;;
59093;SDS011;44880;52.814;18.270;2023-10-08T04:24:44;3.80;;;1.00;;
59093;SDS011;44880;52.814;18.270;2023-10-08T04:27:18;5.40;;;1.10;;
59093;SDS011;44880;52.814;18.270;2023-10-08T04:29:50;5.40;;;1.30;;
59093;SDS011;44880;52.814;18.270;2023-10-08T04:34:53;5.10;;;1.10;;
59093;SDS011;44880;52.814;18.270;2023-10-08T04:37:24;5.80;;;1.40;;
59093;SDS011;44880;52.814;18.270;2023-10-08T04:40:00;4.50;;;1.00;;
59093;SDS011;44880;52.814;18.270;2023-10-08T04:42:41;3.30;;;0.80;;
59093;SDS011;44880;52.814;18.270;2023-10-08T04:45:16;4.30;;;1.60;;
59093;SDS011;44880;52.814;18.270;2023-10-08T04:47:54;3.50;;;0.90;;
59093;SDS011;44880;52.814;18.270;2023-10-08T04:50:27;5.50;;;1.10;;
59093;SDS011;44880;52.814;18.270;2023-10-08T04:53:00;3.10;;;0.80;;
59093;SDS011;44880;52.814;18.270;2023-10-08T04:55:36;3.00;;;0.70;;
59093;SDS011;44880;52.814;18.270;2023-10-08T04:58:16;3.50;;;0.80;;
59093;SDS011;44880;52.814;18.270;2023-10-08T05:01:00;3.90;;;1.00;;
59093;SDS011;44880;52.814;18.270;2023-10-08T05:04:01;5.10;;;1.50;;
59093;SDS011;44880;52.814;18.270;2023-10-08T05:06:51;8.60;;;1.90;;
59093;SDS011;44880;52.814;18.270;2023-10-08T05:10:01;5.40;;;1.20;;
59093;SDS011;44880;52.814;18.270;2023-10-08T05:12:59;7.10;;;1.60;;
59093;SDS011;44880;52.814;18.270;2023-10-08T05:15:44;5.70;;;1.60;;
59093;SDS011;44880;52.814;18.270;2023-10-08T05:18:31;6.40;;;1.40;;
59093;SDS011;44880;52.814;18.270;2023-10-08T05:21:20;5.10;;;1.40;;
59093;SDS011;44880;52.814;18.270;2023-10-08T05:24:02;5.30;;;1.20;;
59093;SDS011;44880;52.814;18.270;2023-10-08T05:26:44;5.40;;;1.30;;
59093;SDS011;44880;52.814;18.270;2023-10-08T05:29:27;5.60;;;1.30;;
59093;SDS011;44880;52.814;18.270;2023-10-08T05:32:22;5.70;;;1.20;;
59093;SDS011;44880;52.814;18.270;2023-10-08T05:35:08;4.10;;;1.00;;
59093;SDS011;44880;52.814;18.270;2023-10-08T05:38:13;8.20;;;1.50;;
59093;SDS011;44880;52.814;18.270;2023-10-08T05:40:51;3.60;;;1.00;;
59093;SDS011;44880;52.814;18.270;2023-10-08T05:43:49;4.20;;;1.10;;
59093;SDS011;44880;52.814;18.270;2023-10-08T05:46:38;3.90;;;1.00;;
59093;SDS011;44880;52.814;18.270;2023-10-08T05:49:26;4.10;;;1.20;;
59093;SDS011;44880;52.814;18.270;2023-10-08T05:52:23;3.60;;;1.00;;
59093;SDS011;44880;52.814;18.270;2023-10-08T05:55:09;4.70;;;1.10;;
59093;SDS011;44880;52.814;18.270;2023-10-08T05:57:54;8.70;;;1.50;;
59093;SDS011;44880;52.814;18.270;2023-10-08T06:00:45;6.50;;;1.10;;
59093;SDS011;44880;52.814;18.270;2023-10-08T06:03:37;5.40;;;1.00;;
59093;SDS011;44880;52.814;18.270;2023-10-08T06:06:28;5.50;;;1.80;;
59093;SDS011;44880;52.814;18.270;2023-10-08T06:09:15;4.50;;;1.20;;
59093;SDS011;44880;52.814;18.270;2023-10-08T06:12:03;6.10;;;1.20;;
59093;SDS011;44880;52.814;18.270;2023-10-08T06:14:58;15.10;;;6.00;;
59093;SDS011;44880;52.814;18.270;2023-10-08T06:18:32;16.10;;;7.50;;
59093;SDS011;44880;52.814;18.270;2023-10-08T06:21:03;8.60;;;3.90;;
59093;SDS011;44880;52.814;18.270;2023-10-08T06:23:35;7.50;;;2.70;;
59093;SDS011;44880;52.814;18.270;2023-10-08T06:26:05;16.40;;;7.70;;
59093;SDS011;44880;52.814;18.270;2023-10-08T06:28:53;26.10;;;14.50;;
59093;SDS011;44880;52.814;18.270;2023-10-08T06:31:25;28.40;;;15.50;;
59093;SDS011;44880;52.814;18.270;2023-10-08T06:33:55;31.80;;;18.20;;
59093;SDS011;44880;52.814;18.270;2023-10-08T06:39:21;7.50;;;2.60;;
59093;SDS011;44880;52.814;18.270;2023-10-08T06:44:56;7.80;;;2.50;;
59093;SDS011;44880;52.814;18.270;2023-10-08T06:47:26;7.50;;;1.60;;
59093;SDS011;44880;52.814;18.270;2023-10-08T06:50:05;7.60;;;1.90;;
59093;SDS011;44880;52.814;18.270;2023-10-08T06:52:41;9.60;;;2.10;;
59093;SDS011;44880;52.814;18.270;2023-10-08T06:55:11;8.00;;;2.50;;
59093;SDS011;44880;52.814;18.270;2023-10-08T06:57:57;7.70;;;1.80;;
59093;SDS011;44880;52.814;18.270;2023-10-08T07:03:24;7.00;;;1.40;;
59093;SDS011;44880;52.814;18.270;2023-10-08T07:06:21;4.20;;;1.10;;
59093;SDS011;44880;52.814;18.270;2023-10-08T07:08:53;7.90;;;2.30;;
59093;SDS011;44880;52.814;18.270;2023-10-08T07:14:32;7.20;;;1.20;;
59093;SDS011;44880;52.814;18.270;2023-10-08T07:17:06;2.90;;;0.90;;
59093;SDS011;44880;52.814;18.270;2023-10-08T07:19:43;7.40;;;1.40;;
59093;SDS011;44880;52.814;18.270;2023-10-08T07:22:18;6.50;;;2.10;;
59093;SDS011;44880;52.814;18.270;2023-10-08T07:25:01;6.20;;;2.10;;
59093;SDS011;44880;52.814;18.270;2023-10-08T07:27:35;7.20;;;2.20;;
59093;SDS011;44880;52.814;18.270;2023-10-08T07:30:05;4.20;;;1.10;;
59093;SDS011;44880;52.814;18.270;2023-10-08T07:32:41;6.30;;;1.00;;
59093;SDS011;44880;52.814;18.270;2023-10-08T07:35:39;3.10;;;0.90;;
59093;SDS011;44880;52.814;18.270;2023-10-08T07:38:08;4.10;;;1.30;;
59093;SDS011;44880;52.814;18.270;2023-10-08T07:40:48;6.00;;;1.30;;
59093;SDS011;44880;52.814;18.270;2023-10-08T07:43:24;5.30;;;1.00;;
59093;SDS011;44880;52.814;18.270;2023-10-08T07:45:53;5.20;;;1.70;;
59093;SDS011;44880;52.814;18.270;2023-10-08T07:48:22;3.80;;;0.90;;
59093;SDS011;44880;52.814;18.270;2023-10-08T07:51:15;3.90;;;0.90;;
59093;SDS011;44880;52.814;18.270;2023-10-08T07:53:49;5.40;;;1.20;;
59093;SDS011;44880;52.814;18.270;2023-10-08T07:59:36;6.20;;;1.40;;
59093;SDS011;44880;52.814;18.270;2023-10-08T08:02:10;5.50;;;1.40;;
59093;SDS011;44880;52.814;18.270;2023-10-08T08:04:53;4.50;;;1.10;;
59093;SDS011;44880;52.814;18.270;2023-10-08T08:07:23;5.70;;;1.10;;
59093;SDS011;44880;52.814;18.270;2023-10-08T08:10:05;5.50;;;1.20;;
59093;SDS011;44880;52.814;18.270;2023-10-08T08:12:53;5.30;;;1.30;;
59093;SDS011;44880;52.814;18.270;2023-10-08T08:15:24;4.80;;;1.10;;
59093;SDS011;44880;52.814;18.270;2023-10-08T08:18:09;3.30;;;0.90;;
59093;SDS011;44880;52.814;18.270;2023-10-08T08:20:50;5.70;;;1.00;;
59093;SDS011;44880;52.814;18.270;2023-10-08T08:28:56;4.50;;;1.50;;
59093;SDS011;44880;52.814;18.270;2023-10-08T08:34:51;3.40;;;0.70;;
59093;SDS011;44880;52.814;18.270;2023-10-08T08:37:29;4.40;;;1.00;;
59093;SDS011;44880;52.814;18.270;2023-10-08T08:39:59;5.00;;;1.10;;
59093;SDS011;44880;52.814;18.270;2023-10-08T08:42:41;5.20;;;0.90;;
59093;SDS011;44880;52.814;18.270;2023-10-08T08:45:21;4.70;;;1.00;;
59093;SDS011;44880;52.814;18.270;2023-10-08T08:47:52;5.40;;;1.20;;
59093;SDS011;44880;52.814;18.270;2023-10-08T08:50:25;4.50;;;1.30;;
59093;SDS011;44880;52.814;18.270;2023-10-08T08:53:15;4.50;;;0.90;;
59093;SDS011;44880;52.814;18.270;2023-10-08T08:55:45;5.10;;;1.00;;
59093;SDS011;44880;52.814;18.270;2023-10-08T09:01:34;2.90;;;0.80;;
59093;SDS011;44880;52.814;18.270;2023-10-08T09:04:31;4.40;;;0.90;;
59093;SDS011;44880;52.814;18.270;2023-10-08T09:07:01;5.20;;;0.90;;
59093;SDS011;44880;52.814;18.270;2023-10-08T09:09:34;5.90;;;0.90;;
59093;SDS011;44880;52.814;18.270;2023-10-08T09:12:23;3.60;;;0.80;;
59093;SDS011;44880;52.814;18.270;2023-10-08T09:14:56;4.80;;;1.10;;
59093;SDS011;44880;52.814;18.270;2023-10-08T09:17:40;4.30;;;0.90;;
59093;SDS011;44880;52.814;18.270;2023-10-08T09:20:32;4.80;;;1.10;;
59093;SDS011;44880;52.814;18.270;2023-10-08T09:29:29;5.70;;;1.10;;
59093;SDS011;44880;52.814;18.270;2023-10-08T09:31:59;4.10;;;1.00;;
59093;SDS011;44880;52.814;18.270;2023-10-08T09:35:09;3.20;;;0.90;;
59093;SDS011;44880;52.814;18.270;2023-10-08T09:37:41;2.10;;;0.60;;
59093;SDS011;44880;52.814;18.270;2023-10-08T09:40:33;5.00;;;1.20;;
59093;SDS011;44880;52.814;18.270;2023-10-08T09:43:03;3.90;;;1.00;;
59093;SDS011;44880;52.814;18.270;2023-10-08T09:45:35;3.20;;;0.80;;
59093;SDS011;44880;52.814;18.270;2023-10-08T09:48:37;3.60;;;0.90;;
59093;SDS011;44880;52.814;18.270;2023-10-08T09:51:08;4.40;;;0.80;;
59093;SDS011;44880;52.814;18.270;2023-10-08T09:53:47;3.60;;;1.00;;
59093;SDS011;44880;52.814;18.270;2023-10-08T09:56:43;2.90;;;0.60;;
59093;SDS011;44880;52.814;18.270;2023-10-08T09:59:41;3.60;;;0.70;;
59093;SDS011;44880;52.814;18.270;2023-10-08T10:02:11;4.20;;;1.00;;
59093;SDS011;44880;52.814;18.270;2023-10-08T10:04:44;3.90;;;1.00;;
59093;SDS011;44880;52.814;18.270;2023-10-08T10:07:30;4.10;;;1.00;;
59093;SDS011;44880;52.814;18.270;2023-10-08T10:10:08;4.10;;;0.80;;
59093;SDS011;44880;52.814;18.270;2023-10-08T10:13:14;3.20;;;0.90;;
59093;SDS011;44880;52.814;18.270;2023-10-08T10:15:45;2.90;;;0.70;;
59093;SDS011;44880;52.814;18.270;2023-10-08T10:18:28;4.30;;;0.90;;
59093;SDS011;44880;52.814;18.270;2023-10-08T10:24:33;5.10;;;1.00;;
59093;SDS011;44880;52.814;18.270;2023-10-08T10:27:10;5.30;;;1.10;;
59093;SDS011;44880;52.814;18.270;2023-10-08T10:29:43;6.10;;;1.10;;
59093;SDS011;44880;52.814;18.270;2023-10-08T10:32:20;4.10;;;0.80;;
59093;SDS011;44880;52.814;18.270;2023-10-08T10:34:50;4.30;;;0.80;;
59093;SDS011;44880;52.814;18.270;2023-10-08T10:37:24;4.00;;;1.30;;
59093;SDS011;44880;52.814;18.270;2023-10-08T10:40:19;4.60;;;1.00;;
59093;SDS011;44880;52.814;18.270;2023-10-08T10:42:56;4.40;;;0.90;;
59093;SDS011;44880;52.814;18.270;2023-10-08T10:45:51;4.40;;;0.80;;
59093;SDS011;44880;52.814;18.270;2023-10-08T10:48:23;5.20;;;0.90;;
59093;SDS011;44880;52.814;18.270;2023-10-08T10:51:11;5.70;;;1.20;;
59093;SDS011;44880;52.814;18.270;2023-10-08T10:53:52;5.10;;;1.00;;
59093;SDS011;44880;52.814;18.270;2023-10-08T10:56:30;5.40;;;1.00;;
59093;SDS011;44880;52.814;18.270;2023-10-08T10:59:19;3.90;;;0.90;;
59093;SDS011;44880;52.814;18.270;2023-10-08T11:01:58;5.20;;;1.10;;
59093;SDS011;44880;52.814;18.270;2023-10-08T11:04:38;5.20;;;1.00;;
59093;SDS011;44880;52.814;18.270;2023-10-08T11:07:18;3.70;;;0.90;;
59093;SDS011;44880;52.814;18.270;2023-10-08T11:09:50;5.20;;;1.20;;
59093;SDS011;44880;52.814;18.270;2023-10-08T11:12:31;4.90;;;1.30;;
59093;SDS011;44880;52.814;18.270;2023-10-08T11:15:24;4.90;;;0.90;;
59093;SDS011;44880;52.814;18.270;2023-10-08T11:18:10;6.20;;;1.60;;
59093;SDS011;44880;52.814;18.270;2023-10-08T11:21:07;4.80;;;1.10;;
59093;SDS011;44880;52.814;18.270;2023-10-08T11:23:52;3.60;;;1.10;;
59093;SDS011;44880;52.814;18.270;2023-10-08T11:26:39;4.70;;;1.20;;
59093;SDS011;44880;52.814;18.270;2023-10-08T11:32:24;5.10;;;1.00;;
59093;SDS011;44880;52.814;18.270;2023-10-08T11:35:06;4.90;;;1.10;;
59093;SDS011;44880;52.814;18.270;2023-10-08T11:37:52;4.80;;;1.20;;
59093;SDS011;44880;52.814;18.270;2023-10-08T11:40:25;3.90;;;1.30;;
59093;SDS011;44880;52.814;18.270;2023-10-08T11:43:31;4.30;;;0.80;;
59093;SDS011;44880;52.814;18.270;2023-10-08T11:46:03;4.10;;;1.00;;
59093;SDS011;44880;52.814;18.270;2023-10-08T11:48:35;4.00;;;1.00;;
59093;SDS011;44880;52.814;18.270;2023-10-08T11:51:17;4.30;;;1.00;;
59093;SDS011;44880;52.814;18.270;2023-10-08T11:53:51;6.10;;;1.40;;
59093;SDS011;44880;52.814;18.270;2023-10-08T11:56:29;3.80;;;0.80;;
59093;SDS011;44880;52.814;18.270;2023-10-08T11:59:25;4.00;;;1.00;;
59093;SDS011;44880;52.814;18.270;2023-10-08T12:02:05;3.70;;;0.80;;
59093;SDS011;44880;52.814;18.270;2023-10-08T12:04:43;4.10;;;0.90;;
59093;SDS011;44880;52.814;18.270;2023-10-08T12:07:12;4.40;;;1.00;;
59093;SDS011;44880;52.814;18.270;2023-10-08T12:09:51;5.50;;;0.90;;
59093;SDS011;44880;52.814;18.270;2023-10-08T12:15:09;4.00;;;1.00;;
59093;SDS011;44880;52.814;18.270;2023-10-08T12:17:54;3.50;;;0.80;;
59093;SDS011;44880;52.814;18.270;2023-10-08T12:20:41;3.80;;;0.90;;
59093;SDS011;44880;52.814;18.270;2023-10-08T12:23:12;3.70;;;0.90;;
59093;SDS011;44880;52.814;18.270;2023-10-08T12:26:03;3.90;;;0.80;;
59093;SDS011;44880;52.814;18.270;2023-10-08T12:28:42;4.30;;;1.10;;
59093;SDS011;44880;52.814;18.270;2023-10-08T12:31:15;5.40;;;1.00;;
59093;SDS011;44880;52.814;18.270;2023-10-08T12:34:00;5.20;;;0.90;;
59093;SDS011;44880;52.814;18.270;2023-10-08T12:36:31;5.60;;;1.10;;
59093;SDS011;44880;52.814;18.270;2023-10-08T12:39:03;3.10;;;0.80;;
59093;SDS011;44880;52.814;18.270;2023-10-08T12:41:56;3.70;;;1.00;;
59093;SDS011;44880;52.814;18.270;2023-10-08T12:44:32;4.30;;;0.70;;
59093;SDS011;44880;52.814;18.270;2023-10-08T12:47:08;3.60;;;0.90;;
59093;SDS011;44880;52.814;18.270;2023-10-08T12:49:45;5.50;;;0.90;;
59093;SDS011;44880;52.814;18.270;2023-10-08T12:52:20;4.70;;;1.10;;
59093;SDS011;44880;52.814;18.270;2023-10-08T12:55:01;4.10;;;1.00;;
59093;SDS011;44880;52.814;18.270;2023-10-08T12:57:36;4.50;;;0.80;;
59093;SDS011;44880;52.814;18.270;2023-10-08T13:00:14;3.90;;;0.80;;
59093;SDS011;44880;52.814;18.270;2023-10-08T13:02:47;3.60;;;0.90;;
59093;SDS011;44880;52.814;18.270;2023-10-08T13:05:28;5.60;;;1.30;;
59093;SDS011;44880;52.814;18.270;2023-10-08T13:08:05;4.50;;;0.90;;
59093;SDS011;44880;52.814;18.270;2023-10-08T13:13:25;6.80;;;1.40;;
59093;SDS011;44880;52.814;18.270;2023-10-08T13:15:56;5.80;;;1.70;;
59093;SDS011;44880;52.814;18.270;2023-10-08T13:18:42;4.20;;;1.00;;
59093;SDS011;44880;52.814;18.270;2023-10-08T13:21:34;11.20;;;3.80;;
59093;SDS011;44880;52.814;18.270;2023-10-08T13:24:18;3.50;;;1.20;;
59093;SDS011;44880;52.814;18.270;2023-10-08T13:26:57;5.70;;;1.90;;
59093;SDS011;44880;52.814;18.270;2023-10-08T13:29:29;4.20;;;1.00;;
59093;SDS011;44880;52.814;18.270;2023-10-08T13:32:13;7.20;;;1.70;;
59093;SDS011;44880;52.814;18.270;2023-10-08T13:35:02;6.70;;;1.70;;
59093;SDS011;44880;52.814;18.270;2023-10-08T13:40:31;5.40;;;1.10;;
59093;SDS011;44880;52.814;18.270;2023-10-08T13:43:07;7.20;;;1.90;;
59093;SDS011;44880;52.814;18.270;2023-10-08T13:46:01;14.40;;;6.30;;
59093;SDS011;44880;52.814;18.270;2023-10-08T13:48:50;7.00;;;2.60;;
59093;SDS011;44880;52.814;18.270;2023-10-08T13:51:44;7.40;;;2.00;;
59093;SDS011;44880;52.814;18.270;2023-10-08T13:54:18;7.60;;;1.90;;
59093;SDS011;44880;52.814;18.270;2023-10-08T13:56:51;5.80;;;1.40;;
59093;SDS011;44880;52.814;18.270;2023-10-08T13:59:35;6.50;;;1.40;;
59093;SDS011;44880;52.814;18.270;2023-10-08T14:02:10;3.10;;;0.70;;
59093;SDS011;44880;52.814;18.270;2023-10-08T14:04:56;4.60;;;0.90;;
59093;SDS011;44880;52.814;18.270;2023-10-08T14:07:44;5.80;;;1.00;;
59093;SDS011;44880;52.814;18.270;2023-10-08T14:10:29;7.10;;;1.50;;
59093;SDS011;44880;52.814;18.270;2023-10-08T14:13:16;4.50;;;1.10;;
59093;SDS011;44880;52.814;18.270;2023-10-08T14:15:51;6.40;;;1.20;;
59093;SDS011;44880;52.814;18.270;2023-10-08T14:18:48;6.20;;;1.80;;
59093;SDS011;44880;52.814;18.270;2023-10-08T14:21:21;5.90;;;1.40;;
59093;SDS011;44880;52.814;18.270;2023-10-08T14:24:24;5.80;;;1.20;;
59093;SDS011;44880;52.814;18.270;2023-10-08T14:27:01;3.70;;;1.10;;
59093;SDS011;44880;52.814;18.270;2023-10-08T14:29:42;5.40;;;1.10;;
59093;SDS011;44880;52.814;18.270;2023-10-08T14:32:27;5.70;;;1.60;;
59093;SDS011;44880;52.814;18.270;2023-10-08T14:35:00;4.50;;;1.20;;
59093;SDS011;44880;52.814;18.270;2023-10-08T14:38:09;6.30;;;1.50;;
59093;SDS011;44880;52.814;18.270;2023-10-08T14:44:21;5.90;;;1.40;;
59093;SDS011;44880;52.814;18.270;2023-10-08T14:47:10;9.80;;;2.90;;
59093;SDS011;44880;52.814;18.270;2023-10-08T14:49:45;15.50;;;7.50;;
59093;SDS011;44880;52.814;18.270;2023-10-08T14:52:33;15.00;;;5.60;;
59093;SDS011;44880;52.814;18.270;2023-10-08T14:55:07;10.50;;;4.10;;
59093;SDS011;44880;52.814;18.270;2023-10-08T15:00:41;7.10;;;1.70;;
59093;SDS011;44880;52.814;18.270;2023-10-08T15:03:15;7.30;;;2.20;;
59093;SDS011;44880;52.814;18.270;2023-10-08T15:06:04;8.20;;;2.50;;
59093;SDS011;44880;52.814;18.270;2023-10-08T15:08:38;7.00;;;1.60;;
59093;SDS011;44880;52.814;18.270;2023-10-08T15:11:08;7.00;;;1.40;;
59093;SDS011;44880;52.814;18.270;2023-10-08T15:13:56;9.60;;;2.40;;
59093;SDS011;44880;52.814;18.270;2023-10-08T15:16:31;9.50;;;3.40;;
59093;SDS011;44880;52.814;18.270;2023-10-08T15:22:08;18.00;;;6.30;;
59093;SDS011;44880;52.814;18.270;2023-10-08T15:24:44;13.10;;;4.40;;
59093;SDS011;44880;52.814;18.270;2023-10-08T15:27:42;6.60;;;1.50;;
59093;SDS011;44880;52.814;18.270;2023-10-08T15:30:16;5.10;;;1.10;;
59093;SDS011;44880;52.814;18.270;2023-10-08T15:33:05;9.90;;;3.70;;
59093;SDS011;44880;52.814;18.270;2023-10-08T15:35:38;6.40;;;1.70;;
59093;SDS011;44880;52.814;18.270;2023-10-08T15:38:19;5.90;;;1.50;;
59093;SDS011;44880;52.814;18.270;2023-10-08T15:41:03;6.50;;;1.30;;
59093;SDS011;44880;52.814;18.270;2023-10-08T15:43:37;6.30;;;1.70;;
59093;SDS011;44880;52.814;18.270;2023-10-08T15:46:16;4.80;;;1.10;;
59093;SDS011;44880;52.814;18.270;2023-10-08T15:48:56;6.30;;;1.40;;
59093;SDS011;44880;52.814;18.270;2023-10-08T15:51:29;7.60;;;2.20;;
59093;SDS011;44880;52.814;18.270;2023-10-08T15:54:04;9.00;;;2.20;;
59093;SDS011;44880;52.814;18.270;2023-10-08T15:56:45;9.30;;;3.50;;
59093;SDS011;44880;52.814;18.270;2023-10-08T15:59:21;10.30;;;3.10;;
59093;SDS011;44880;52.814;18.270;2023-10-08T16:01:53;7.30;;;1.70;;
59093;SDS011;44880;52.814;18.270;2023-10-08T16:04:25;7.50;;;1.90;;
59093;SDS011;44880;52.814;18.270;2023-10-08T16:06:58;8.10;;;1.90;;
59093;SDS011;44880;52.814;18.270;2023-10-08T16:09:30;5.40;;;1.30;;
59093;SDS011;44880;52.814;18.270;2023-10-08T16:12:01;5.30;;;1.40;;
59093;SDS011;44880;52.814;18.270;2023-10-08T16:14:36;6.70;;;1.40;;
59093;SDS011;44880;52.814;18.270;2023-10-08T16:17:10;7.40;;;2.10;;
59093;SDS011;44880;52.814;18.270;2023-10-08T16:19:44;8.60;;;3.30;;
59093;SDS011;44880;52.814;18.270;2023-10-08T16:22:15;23.50;;;15.30;;
59093;SDS011;44880;52.814;18.270;2023-10-08T16:24:46;13.00;;;8.60;;
59093;SDS011;44880;52.814;18.270;2023-10-08T16:27:16;37.50;;;18.20;;
59093;SDS011;44880;52.814;18.270;2023-10-08T16:29:50;48.80;;;25.90;;
59093;SDS011;44880;52.814;18.270;2023-10-08T16:32:24;72.70;;;38.20;;
59093;SDS011;44880;52.814;18.270;2023-10-08T16:34:55;96.40;;;45.50;;
59093;SDS011;44880;52.814;18.270;2023-10-08T16:37:27;31.30;;;18.30;;
59093;SDS011;44880;52.814;18.270;2023-10-08T16:40:02;17.60;;;11.60;;
59093;SDS011;44880;52.814;18.270;2023-10-08T16:42:36;10.50;;;4.60;;
59093;SDS011;44880;52.814;18.270;2023-10-08T16:45:11;40.50;;;23.00;;
59093;SDS011;44880;52.814;18.270;2023-10-08T16:47:45;41.00;;;19.90;;
59093;SDS011;44880;52.814;18.270;2023-10-08T16:50:16;15.70;;;7.10;;
59093;SDS011;44880;52.814;18.270;2023-10-08T16:52:49;10.80;;;5.20;;